sensor_id;sensor_type;location;lat;lon;timestamp;P1;durP1;ratioP1;P2;durP2;ratioP2
70829;SDS011;58451;51.550;7.208;2022-07-06T00:01:20;6.50;;;1.70;;
70829;SDS011;58451;51.550;7.208;2022-07-06T00:03:47;6.90;;;1.30;;
70829;SDS011;58451;51.550;7.208;2022-07-06T00:06:20;4.30;;;1.10;;
70829;SDS011;58451;51.550;7.208;2022-07-06T00:08:47;4.70;;;1.40;;
70829;SDS011;58451;51.550;7.208;2022-07-06T00:11:14;7.10;;;1.30;;
70829;SDS011;58451;51.550;7.208;2022-07-06T00:13:42;3.70;;;1.20;;
70829;SDS011;58451;51.550;7.208;2022-07-06T00:16:09;4.60;;;1.10;;
70829;SDS011;58451;51.550;7.208;2022-07-06T00:18:36;4.10;;;1.00;;
70829;SDS011;58451;51.550;7.208;2022-07-06T00:21:03;3.90;;;1.20;;
70829;SDS011;58451;51.550;7.208;2022-07-06T00:23:30;4.30;;;1.00;;
70829;SDS011;58451;51.550;7.208;2022-07-06T00:25:56;4.20;;;1.20;;
70829;SDS011;58451;51.550;7.208;2022-07-06T00:28:23;8.80;;;1.10;;
70829;SDS011;58451;51.550;7.208;2022-07-06T00:30:52;3.60;;;1.00;;
70829;SDS011;58451;51.550;7.208;2022-07-06T00:33:19;3.10;;;0.90;;
70829;SDS011;58451;51.550;7.208;2022-07-06T00:35:47;3.90;;;0.90;;
70829;SDS011;58451;51.550;7.208;2022-07-06T00:38:14;3.10;;;0.90;;
70829;SDS011;58451;51.550;7.208;2022-07-06T00:40:41;4.30;;;1.10;;
70829;SDS011;58451;51.550;7.208;2022-07-06T00:43:08;2.90;;;1.10;;
70829;SDS011;58451;51.550;7.208;2022-07-06T00:45:35;4.00;;;1.00;;
70829;SDS011;58451;51.550;7.208;2022-07-06T00:48:03;3.40;;;0.90;;
70829;SDS011;58451;51.550;7.208;2022-07-06T00:50:30;4.80;;;0.90;;
70829;SDS011;58451;51.550;7.208;2022-07-06T00:53:04;2.40;;;0.60;;
70829;SDS011;58451;51.550;7.208;2022-07-06T00:55:35;6.70;;;1.30;;
70829;SDS011;58451;51.550;7.208;2022-07-06T00:58:06;4.30;;;1.10;;
70829;SDS011;58451;51.550;7.208;2022-07-06T01:00:35;3.30;;;0.90;;
70829;SDS011;58451;51.550;7.208;2022-07-06T01:03:03;3.30;;;0.90;;
70829;SDS011;58451;51.550;7.208;2022-07-06T01:05:30;4.10;;;1.10;;
70829;SDS011;58451;51.550;7.208;2022-07-06T01:07:57;3.20;;;0.90;;
70829;SDS011;58451;51.550;7.208;2022-07-06T01:10:24;3.30;;;0.90;;
70829;SDS011;58451;51.550;7.208;2022-07-06T01:12:51;2.10;;;0.90;;
70829;SDS011;58451;51.550;7.208;2022-07-06T01:15:21;3.80;;;0.80;;
70829;SDS011;58451;51.550;7.208;2022-07-06T01:17:51;3.90;;;0.90;;
70829;SDS011;58451;51.550;7.208;2022-07-06T01:20:19;3.50;;;0.90;;
70829;SDS011;58451;51.550;7.208;2022-07-06T01:22:53;5.00;;;0.50;;
70829;SDS011;58451;51.550;7.208;2022-07-06T01:25:21;4.00;;;0.70;;
70829;SDS011;58451;51.550;7.208;2022-07-06T01:27:48;2.50;;;0.60;;
70829;SDS011;58451;51.550;7.208;2022-07-06T01:30:18;3.70;;;0.60;;
70829;SDS011;58451;51.550;7.208;2022-07-06T01:32:46;2.20;;;0.70;;
70829;SDS011;58451;51.550;7.208;2022-07-06T01:35:15;3.90;;;0.80;;
70829;SDS011;58451;51.550;7.208;2022-07-06T01:37:42;2.70;;;0.60;;
70829;SDS011;58451;51.550;7.208;2022-07-06T01:40:11;3.50;;;0.60;;
70829;SDS011;58451;51.550;7.208;2022-07-06T01:42:39;2.70;;;0.60;;
70829;SDS011;58451;51.550;7.208;2022-07-06T01:45:07;2.60;;;0.60;;
70829;SDS011;58451;51.550;7.208;2022-07-06T01:47:36;2.50;;;0.60;;
70829;SDS011;58451;51.550;7.208;2022-07-06T01:50:05;2.10;;;0.70;;
70829;SDS011;58451;51.550;7.208;2022-07-06T01:52:37;4.50;;;0.90;;
70829;SDS011;58451;51.550;7.208;2022-07-06T01:55:04;4.20;;;0.70;;
70829;SDS011;58451;51.550;7.208;2022-07-06T01:57:33;4.30;;;0.50;;
70829;SDS011;58451;51.550;7.208;2022-07-06T02:00:00;3.20;;;0.60;;
70829;SDS011;58451;51.550;7.208;2022-07-06T02:02:38;3.80;;;0.50;;
70829;SDS011;58451;51.550;7.208;2022-07-06T02:05:06;2.80;;;0.70;;
70829;SDS011;58451;51.550;7.208;2022-07-06T02:07:33;2.20;;;0.50;;
70829;SDS011;58451;51.550;7.208;2022-07-06T02:10:00;3.60;;;0.60;;
70829;SDS011;58451;51.550;7.208;2022-07-06T02:12:27;3.60;;;0.90;;
70829;SDS011;58451;51.550;7.208;2022-07-06T02:14:54;4.80;;;0.90;;
70829;SDS011;58451;51.550;7.208;2022-07-06T02:17:21;4.10;;;0.70;;
70829;SDS011;58451;51.550;7.208;2022-07-06T02:19:49;2.30;;;0.60;;
70829;SDS011;58451;51.550;7.208;2022-07-06T02:22:16;2.40;;;0.50;;
70829;SDS011;58451;51.550;7.208;2022-07-06T02:24:42;4.00;;;0.70;;
70829;SDS011;58451;51.550;7.208;2022-07-06T02:27:10;3.10;;;0.70;;
70829;SDS011;58451;51.550;7.208;2022-07-06T02:29:37;3.80;;;0.90;;
70829;SDS011;58451;51.550;7.208;2022-07-06T02:32:05;4.50;;;1.00;;
70829;SDS011;58451;51.550;7.208;2022-07-06T02:34:32;5.40;;;1.00;;
70829;SDS011;58451;51.550;7.208;2022-07-06T02:36:59;4.30;;;0.80;;
70829;SDS011;58451;51.550;7.208;2022-07-06T02:39:27;3.40;;;0.70;;
70829;SDS011;58451;51.550;7.208;2022-07-06T02:41:54;3.90;;;1.00;;
70829;SDS011;58451;51.550;7.208;2022-07-06T02:44:21;3.50;;;0.80;;
70829;SDS011;58451;51.550;7.208;2022-07-06T02:46:48;4.50;;;0.90;;
70829;SDS011;58451;51.550;7.208;2022-07-06T02:49:15;2.90;;;0.90;;
70829;SDS011;58451;51.550;7.208;2022-07-06T02:51:42;4.50;;;0.90;;
70829;SDS011;58451;51.550;7.208;2022-07-06T02:54:10;5.50;;;1.40;;
70829;SDS011;58451;51.550;7.208;2022-07-06T02:56:37;4.60;;;0.90;;
70829;SDS011;58451;51.550;7.208;2022-07-06T02:59:04;3.60;;;0.70;;
70829;SDS011;58451;51.550;7.208;2022-07-06T03:01:38;3.80;;;0.90;;
70829;SDS011;58451;51.550;7.208;2022-07-06T03:04:05;3.60;;;0.90;;
70829;SDS011;58451;51.550;7.208;2022-07-06T03:06:32;1.80;;;0.60;;
70829;SDS011;58451;51.550;7.208;2022-07-06T03:08:59;3.70;;;0.80;;
70829;SDS011;58451;51.550;7.208;2022-07-06T03:11:27;3.50;;;0.90;;
70829;SDS011;58451;51.550;7.208;2022-07-06T03:13:54;3.20;;;0.80;;
70829;SDS011;58451;51.550;7.208;2022-07-06T03:16:22;6.20;;;1.10;;
70829;SDS011;58451;51.550;7.208;2022-07-06T03:18:49;3.20;;;1.10;;
70829;SDS011;58451;51.550;7.208;2022-07-06T03:21:16;5.00;;;1.10;;
70829;SDS011;58451;51.550;7.208;2022-07-06T03:23:43;3.00;;;1.00;;
70829;SDS011;58451;51.550;7.208;2022-07-06T03:26:10;5.60;;;1.00;;
70829;SDS011;58451;51.550;7.208;2022-07-06T03:28:37;4.60;;;0.90;;
70829;SDS011;58451;51.550;7.208;2022-07-06T03:31:04;3.60;;;1.00;;
70829;SDS011;58451;51.550;7.208;2022-07-06T03:33:31;4.00;;;1.10;;
70829;SDS011;58451;51.550;7.208;2022-07-06T03:35:58;4.70;;;1.10;;
70829;SDS011;58451;51.550;7.208;2022-07-06T03:38:25;4.40;;;1.20;;
70829;SDS011;58451;51.550;7.208;2022-07-06T03:40:52;5.80;;;1.30;;
70829;SDS011;58451;51.550;7.208;2022-07-06T03:43:19;5.10;;;1.10;;
70829;SDS011;58451;51.550;7.208;2022-07-06T03:45:47;4.20;;;0.80;;
70829;SDS011;58451;51.550;7.208;2022-07-06T03:48:14;5.40;;;1.30;;
70829;SDS011;58451;51.550;7.208;2022-07-06T03:50:41;3.50;;;1.20;;
70829;SDS011;58451;51.550;7.208;2022-07-06T03:53:08;6.40;;;1.40;;
70829;SDS011;58451;51.550;7.208;2022-07-06T03:55:35;3.40;;;1.00;;
70829;SDS011;58451;51.550;7.208;2022-07-06T03:58:05;4.70;;;0.90;;
70829;SDS011;58451;51.550;7.208;2022-07-06T04:00:34;4.10;;;1.00;;
70829;SDS011;58451;51.550;7.208;2022-07-06T04:03:02;4.20;;;1.20;;
70829;SDS011;58451;51.550;7.208;2022-07-06T04:05:32;5.10;;;1.20;;
70829;SDS011;58451;51.550;7.208;2022-07-06T04:08:00;4.70;;;1.20;;
70829;SDS011;58451;51.550;7.208;2022-07-06T04:10:34;5.10;;;1.00;;
70829;SDS011;58451;51.550;7.208;2022-07-06T04:13:01;4.30;;;1.00;;
70829;SDS011;58451;51.550;7.208;2022-07-06T04:15:29;5.60;;;1.10;;
70829;SDS011;58451;51.550;7.208;2022-07-06T04:17:56;5.20;;;0.90;;
70829;SDS011;58451;51.550;7.208;2022-07-06T04:20:27;5.50;;;1.50;;
70829;SDS011;58451;51.550;7.208;2022-07-06T04:22:55;4.50;;;0.90;;
70829;SDS011;58451;51.550;7.208;2022-07-06T04:25:23;3.10;;;0.90;;
70829;SDS011;58451;51.550;7.208;2022-07-06T04:27:50;6.10;;;1.20;;
70829;SDS011;58451;51.550;7.208;2022-07-06T04:30:17;5.20;;;0.90;;
70829;SDS011;58451;51.550;7.208;2022-07-06T04:32:44;5.10;;;1.20;;
70829;SDS011;58451;51.550;7.208;2022-07-06T04:35:12;3.20;;;0.90;;
70829;SDS011;58451;51.550;7.208;2022-07-06T04:37:39;3.70;;;0.80;;
70829;SDS011;58451;51.550;7.208;2022-07-06T04:40:07;5.00;;;1.10;;
70829;SDS011;58451;51.550;7.208;2022-07-06T04:42:40;4.80;;;1.10;;
70829;SDS011;58451;51.550;7.208;2022-07-06T04:45:08;3.50;;;0.90;;
70829;SDS011;58451;51.550;7.208;2022-07-06T04:47:35;2.80;;;1.10;;
70829;SDS011;58451;51.550;7.208;2022-07-06T04:50:04;6.00;;;1.60;;
70829;SDS011;58451;51.550;7.208;2022-07-06T04:52:31;7.00;;;1.40;;
70829;SDS011;58451;51.550;7.208;2022-07-06T04:54:58;3.90;;;1.10;;
70829;SDS011;58451;51.550;7.208;2022-07-06T04:57:26;6.50;;;1.20;;
70829;SDS011;58451;51.550;7.208;2022-07-06T04:59:56;6.60;;;1.40;;
70829;SDS011;58451;51.550;7.208;2022-07-06T05:02:23;4.10;;;1.00;;
70829;SDS011;58451;51.550;7.208;2022-07-06T05:04:51;4.30;;;0.80;;
70829;SDS011;58451;51.550;7.208;2022-07-06T05:07:18;5.90;;;1.20;;
70829;SDS011;58451;51.550;7.208;2022-07-06T05:09:45;4.00;;;0.80;;
70829;SDS011;58451;51.550;7.208;2022-07-06T05:12:18;7.50;;;1.00;;
70829;SDS011;58451;51.550;7.208;2022-07-06T05:14:45;2.80;;;0.60;;
70829;SDS011;58451;51.550;7.208;2022-07-06T05:17:12;4.10;;;0.70;;
70829;SDS011;58451;51.550;7.208;2022-07-06T05:19:39;4.50;;;0.70;;
70829;SDS011;58451;51.550;7.208;2022-07-06T05:22:07;7.10;;;0.90;;
70829;SDS011;58451;51.550;7.208;2022-07-06T05:24:34;3.80;;;0.80;;
70829;SDS011;58451;51.550;7.208;2022-07-06T05:27:01;4.20;;;0.70;;
70829;SDS011;58451;51.550;7.208;2022-07-06T05:29:29;8.10;;;0.80;;
70829;SDS011;58451;51.550;7.208;2022-07-06T05:31:56;4.00;;;0.70;;
70829;SDS011;58451;51.550;7.208;2022-07-06T05:34:23;3.90;;;0.50;;
70829;SDS011;58451;51.550;7.208;2022-07-06T05:36:51;5.70;;;0.80;;
70829;SDS011;58451;51.550;7.208;2022-07-06T05:39:18;5.30;;;0.60;;
70829;SDS011;58451;51.550;7.208;2022-07-06T05:41:48;5.40;;;0.70;;
70829;SDS011;58451;51.550;7.208;2022-07-06T05:44:16;7.00;;;0.80;;
70829;SDS011;58451;51.550;7.208;2022-07-06T05:46:43;5.40;;;0.90;;
70829;SDS011;58451;51.550;7.208;2022-07-06T05:49:10;3.70;;;0.60;;
70829;SDS011;58451;51.550;7.208;2022-07-06T05:51:56;4.00;;;0.60;;
70829;SDS011;58451;51.550;7.208;2022-07-06T05:54:23;3.90;;;0.90;;
70829;SDS011;58451;51.550;7.208;2022-07-06T05:56:50;4.70;;;0.80;;
70829;SDS011;58451;51.550;7.208;2022-07-06T05:59:17;2.50;;;0.60;;
70829;SDS011;58451;51.550;7.208;2022-07-06T06:01:44;3.80;;;0.70;;
70829;SDS011;58451;51.550;7.208;2022-07-06T06:04:14;3.60;;;0.50;;
70829;SDS011;58451;51.550;7.208;2022-07-06T06:06:42;2.80;;;0.80;;
70829;SDS011;58451;51.550;7.208;2022-07-06T06:09:08;4.60;;;0.50;;
70829;SDS011;58451;51.550;7.208;2022-07-06T06:11:35;3.20;;;0.50;;
70829;SDS011;58451;51.550;7.208;2022-07-06T06:14:04;4.60;;;0.50;;
70829;SDS011;58451;51.550;7.208;2022-07-06T06:16:31;5.20;;;0.70;;
70829;SDS011;58451;51.550;7.208;2022-07-06T06:18:58;3.00;;;0.40;;
70829;SDS011;58451;51.550;7.208;2022-07-06T06:21:25;4.60;;;0.70;;
70829;SDS011;58451;51.550;7.208;2022-07-06T06:23:52;4.20;;;0.60;;
70829;SDS011;58451;51.550;7.208;2022-07-06T06:26:18;3.70;;;0.60;;
70829;SDS011;58451;51.550;7.208;2022-07-06T06:28:45;5.00;;;0.60;;
70829;SDS011;58451;51.550;7.208;2022-07-06T06:31:12;5.80;;;0.50;;
70829;SDS011;58451;51.550;7.208;2022-07-06T06:33:39;4.10;;;0.60;;
70829;SDS011;58451;51.550;7.208;2022-07-06T06:36:06;1.50;;;0.40;;
70829;SDS011;58451;51.550;7.208;2022-07-06T06:38:33;1.90;;;0.40;;
70829;SDS011;58451;51.550;7.208;2022-07-06T06:41:00;4.80;;;0.70;;
70829;SDS011;58451;51.550;7.208;2022-07-06T06:43:28;4.50;;;0.50;;
70829;SDS011;58451;51.550;7.208;2022-07-06T06:46:15;5.20;;;0.50;;
70829;SDS011;58451;51.550;7.208;2022-07-06T06:48:42;3.60;;;0.80;;
70829;SDS011;58451;51.550;7.208;2022-07-06T06:51:09;2.90;;;0.50;;
70829;SDS011;58451;51.550;7.208;2022-07-06T06:53:36;6.40;;;0.60;;
70829;SDS011;58451;51.550;7.208;2022-07-06T06:56:06;4.90;;;0.50;;
70829;SDS011;58451;51.550;7.208;2022-07-06T06:58:35;3.10;;;0.60;;
70829;SDS011;58451;51.550;7.208;2022-07-06T07:01:22;2.10;;;0.40;;
70829;SDS011;58451;51.550;7.208;2022-07-06T07:03:50;1.00;;;0.40;;
70829;SDS011;58451;51.550;7.208;2022-07-06T07:06:18;4.20;;;0.50;;
70829;SDS011;58451;51.550;7.208;2022-07-06T07:08:45;4.00;;;0.50;;
70829;SDS011;58451;51.550;7.208;2022-07-06T07:11:12;3.30;;;0.70;;
70829;SDS011;58451;51.550;7.208;2022-07-06T07:13:39;2.20;;;0.40;;
70829;SDS011;58451;51.550;7.208;2022-07-06T07:16:06;4.60;;;0.50;;
70829;SDS011;58451;51.550;7.208;2022-07-06T07:18:33;3.30;;;0.50;;
70829;SDS011;58451;51.550;7.208;2022-07-06T07:21:00;2.90;;;0.50;;
70829;SDS011;58451;51.550;7.208;2022-07-06T07:23:27;3.00;;;0.40;;
70829;SDS011;58451;51.550;7.208;2022-07-06T07:25:54;4.70;;;0.40;;
70829;SDS011;58451;51.550;7.208;2022-07-06T07:28:21;1.60;;;0.40;;
70829;SDS011;58451;51.550;7.208;2022-07-06T07:30:48;3.10;;;0.60;;
70829;SDS011;58451;51.550;7.208;2022-07-06T07:33:15;3.00;;;0.50;;
70829;SDS011;58451;51.550;7.208;2022-07-06T07:35:42;2.20;;;0.60;;
70829;SDS011;58451;51.550;7.208;2022-07-06T07:38:09;3.70;;;0.40;;
70829;SDS011;58451;51.550;7.208;2022-07-06T07:40:36;3.20;;;0.50;;
70829;SDS011;58451;51.550;7.208;2022-07-06T07:43:03;1.50;;;0.40;;
70829;SDS011;58451;51.550;7.208;2022-07-06T07:45:30;2.70;;;0.50;;
70829;SDS011;58451;51.550;7.208;2022-07-06T07:47:57;2.70;;;0.40;;
70829;SDS011;58451;51.550;7.208;2022-07-06T07:50:24;1.90;;;0.50;;
70829;SDS011;58451;51.550;7.208;2022-07-06T07:52:51;3.00;;;0.50;;
70829;SDS011;58451;51.550;7.208;2022-07-06T07:55:17;2.40;;;0.50;;
70829;SDS011;58451;51.550;7.208;2022-07-06T07:58:05;2.10;;;0.40;;
70829;SDS011;58451;51.550;7.208;2022-07-06T08:00:32;3.00;;;0.50;;
70829;SDS011;58451;51.550;7.208;2022-07-06T08:03:00;3.50;;;0.40;;
70829;SDS011;58451;51.550;7.208;2022-07-06T08:05:27;4.20;;;0.90;;
70829;SDS011;58451;51.550;7.208;2022-07-06T08:07:54;3.50;;;0.70;;
70829;SDS011;58451;51.550;7.208;2022-07-06T08:10:21;2.60;;;0.70;;
70829;SDS011;58451;51.550;7.208;2022-07-06T08:12:48;2.60;;;0.50;;
70829;SDS011;58451;51.550;7.208;2022-07-06T08:15:15;2.10;;;0.50;;
70829;SDS011;58451;51.550;7.208;2022-07-06T08:17:42;3.60;;;0.70;;
70829;SDS011;58451;51.550;7.208;2022-07-06T08:20:10;2.90;;;0.40;;
70829;SDS011;58451;51.550;7.208;2022-07-06T08:22:38;4.40;;;0.40;;
70829;SDS011;58451;51.550;7.208;2022-07-06T08:25:06;2.80;;;0.40;;
70829;SDS011;58451;51.550;7.208;2022-07-06T08:27:34;3.40;;;0.50;;
70829;SDS011;58451;51.550;7.208;2022-07-06T08:30:03;3.90;;;0.60;;
70829;SDS011;58451;51.550;7.208;2022-07-06T08:32:31;3.80;;;0.50;;
70829;SDS011;58451;51.550;7.208;2022-07-06T08:35:18;2.10;;;0.50;;
70829;SDS011;58451;51.550;7.208;2022-07-06T08:37:46;1.80;;;0.40;;
70829;SDS011;58451;51.550;7.208;2022-07-06T08:40:13;3.60;;;0.70;;
70829;SDS011;58451;51.550;7.208;2022-07-06T08:42:42;2.10;;;0.40;;
70829;SDS011;58451;51.550;7.208;2022-07-06T08:45:11;1.50;;;0.50;;
70829;SDS011;58451;51.550;7.208;2022-07-06T08:47:41;2.60;;;0.60;;
70829;SDS011;58451;51.550;7.208;2022-07-06T08:50:09;3.90;;;0.60;;
70829;SDS011;58451;51.550;7.208;2022-07-06T08:52:37;3.10;;;0.60;;
70829;SDS011;58451;51.550;7.208;2022-07-06T08:55:05;4.40;;;0.80;;
70829;SDS011;58451;51.550;7.208;2022-07-06T08:57:35;1.90;;;0.60;;
70829;SDS011;58451;51.550;7.208;2022-07-06T09:00:02;2.90;;;0.50;;
70829;SDS011;58451;51.550;7.208;2022-07-06T09:02:29;4.30;;;0.60;;
70829;SDS011;58451;51.550;7.208;2022-07-06T09:04:57;3.80;;;0.60;;
70829;SDS011;58451;51.550;7.208;2022-07-06T09:07:27;1.70;;;0.70;;
70829;SDS011;58451;51.550;7.208;2022-07-06T09:10:17;2.30;;;0.50;;
70829;SDS011;58451;51.550;7.208;2022-07-06T09:12:45;3.30;;;0.60;;
70829;SDS011;58451;51.550;7.208;2022-07-06T09:15:13;2.60;;;0.70;;
70829;SDS011;58451;51.550;7.208;2022-07-06T09:17:42;3.40;;;0.60;;
70829;SDS011;58451;51.550;7.208;2022-07-06T09:20:11;2.30;;;0.60;;
70829;SDS011;58451;51.550;7.208;2022-07-06T09:22:40;2.20;;;0.60;;
70829;SDS011;58451;51.550;7.208;2022-07-06T09:25:10;2.90;;;0.70;;
70829;SDS011;58451;51.550;7.208;2022-07-06T09:27:47;2.50;;;0.70;;
70829;SDS011;58451;51.550;7.208;2022-07-06T09:30:16;1.30;;;0.60;;
70829;SDS011;58451;51.550;7.208;2022-07-06T09:32:46;3.30;;;0.70;;
70829;SDS011;58451;51.550;7.208;2022-07-06T09:37:59;3.90;;;0.60;;
70829;SDS011;58451;51.550;7.208;2022-07-06T09:40:30;3.90;;;0.70;;
70829;SDS011;58451;51.550;7.208;2022-07-06T09:43:18;4.00;;;0.90;;
70829;SDS011;58451;51.550;7.208;2022-07-06T09:45:55;4.10;;;0.70;;
70829;SDS011;58451;51.550;7.208;2022-07-06T09:48:25;2.20;;;0.50;;
70829;SDS011;58451;51.550;7.208;2022-07-06T09:50:55;3.70;;;0.60;;
70829;SDS011;58451;51.550;7.208;2022-07-06T09:53:29;2.90;;;0.80;;
70829;SDS011;58451;51.550;7.208;2022-07-06T09:55:57;2.90;;;0.70;;
70829;SDS011;58451;51.550;7.208;2022-07-06T09:58:25;2.00;;;0.60;;
70829;SDS011;58451;51.550;7.208;2022-07-06T10:01:25;3.10;;;0.50;;
70829;SDS011;58451;51.550;7.208;2022-07-06T10:03:54;2.60;;;0.70;;
70829;SDS011;58451;51.550;7.208;2022-07-06T10:06:23;1.90;;;0.50;;
70829;SDS011;58451;51.550;7.208;2022-07-06T10:08:53;2.70;;;0.60;;
70829;SDS011;58451;51.550;7.208;2022-07-06T10:11:22;2.90;;;0.50;;
70829;SDS011;58451;51.550;7.208;2022-07-06T10:13:54;3.30;;;0.60;;
70829;SDS011;58451;51.550;7.208;2022-07-06T10:16:24;3.20;;;0.60;;
70829;SDS011;58451;51.550;7.208;2022-07-06T10:18:52;3.30;;;0.60;;
70829;SDS011;58451;51.550;7.208;2022-07-06T10:21:23;2.80;;;0.50;;
70829;SDS011;58451;51.550;7.208;2022-07-06T10:23:50;4.40;;;0.70;;
70829;SDS011;58451;51.550;7.208;2022-07-06T10:26:18;2.00;;;0.60;;
70829;SDS011;58451;51.550;7.208;2022-07-06T10:28:47;2.40;;;0.70;;
70829;SDS011;58451;51.550;7.208;2022-07-06T10:31:16;1.70;;;0.70;;
70829;SDS011;58451;51.550;7.208;2022-07-06T10:33:45;3.00;;;0.70;;
70829;SDS011;58451;51.550;7.208;2022-07-06T10:36:14;2.50;;;0.60;;
70829;SDS011;58451;51.550;7.208;2022-07-06T10:38:48;4.30;;;0.90;;
70829;SDS011;58451;51.550;7.208;2022-07-06T10:41:17;3.00;;;0.90;;
70829;SDS011;58451;51.550;7.208;2022-07-06T10:43:46;2.60;;;0.70;;
70829;SDS011;58451;51.550;7.208;2022-07-06T10:46:15;2.80;;;0.60;;
70829;SDS011;58451;51.550;7.208;2022-07-06T10:48:48;2.80;;;0.80;;
70829;SDS011;58451;51.550;7.208;2022-07-06T10:51:26;3.10;;;0.70;;
70829;SDS011;58451;51.550;7.208;2022-07-06T10:53:56;3.70;;;0.70;;
70829;SDS011;58451;51.550;7.208;2022-07-06T10:56:40;9.30;;;2.10;;
70829;SDS011;58451;51.550;7.208;2022-07-06T10:59:22;3.80;;;1.00;;
70829;SDS011;58451;51.550;7.208;2022-07-06T11:04:43;3.40;;;1.00;;
70829;SDS011;58451;51.550;7.208;2022-07-06T11:07:19;3.50;;;0.80;;
70829;SDS011;58451;51.550;7.208;2022-07-06T11:09:57;2.30;;;0.80;;
70829;SDS011;58451;51.550;7.208;2022-07-06T11:12:26;2.50;;;0.70;;
70829;SDS011;58451;51.550;7.208;2022-07-06T11:14:53;2.90;;;0.70;;
70829;SDS011;58451;51.550;7.208;2022-07-06T11:17:21;4.40;;;1.10;;
70829;SDS011;58451;51.550;7.208;2022-07-06T11:19:59;4.60;;;1.00;;
70829;SDS011;58451;51.550;7.208;2022-07-06T11:22:38;5.00;;;1.00;;
70829;SDS011;58451;51.550;7.208;2022-07-06T11:25:06;2.70;;;0.90;;
70829;SDS011;58451;51.550;7.208;2022-07-06T11:27:36;2.80;;;0.90;;
70829;SDS011;58451;51.550;7.208;2022-07-06T11:30:05;2.50;;;0.70;;
70829;SDS011;58451;51.550;7.208;2022-07-06T11:32:35;3.90;;;0.70;;
70829;SDS011;58451;51.550;7.208;2022-07-06T11:35:03;3.10;;;0.80;;
70829;SDS011;58451;51.550;7.208;2022-07-06T11:37:30;2.30;;;0.90;;
70829;SDS011;58451;51.550;7.208;2022-07-06T11:40:06;3.40;;;0.90;;
70829;SDS011;58451;51.550;7.208;2022-07-06T11:42:34;2.90;;;0.70;;
70829;SDS011;58451;51.550;7.208;2022-07-06T11:45:02;3.40;;;0.90;;
70829;SDS011;58451;51.550;7.208;2022-07-06T11:47:30;4.20;;;1.00;;
70829;SDS011;58451;51.550;7.208;2022-07-06T11:49:57;1.40;;;0.60;;
70829;SDS011;58451;51.550;7.208;2022-07-06T11:52:24;2.70;;;0.70;;
70829;SDS011;58451;51.550;7.208;2022-07-06T11:54:57;4.10;;;0.80;;
70829;SDS011;58451;51.550;7.208;2022-07-06T11:57:29;2.50;;;0.80;;
70829;SDS011;58451;51.550;7.208;2022-07-06T11:59:58;2.70;;;0.80;;
70829;SDS011;58451;51.550;7.208;2022-07-06T12:02:25;4.70;;;0.60;;
70829;SDS011;58451;51.550;7.208;2022-07-06T12:04:52;2.40;;;0.80;;
70829;SDS011;58451;51.550;7.208;2022-07-06T12:07:20;4.20;;;0.70;;
70829;SDS011;58451;51.550;7.208;2022-07-06T12:09:47;3.70;;;0.80;;
70829;SDS011;58451;51.550;7.208;2022-07-06T12:12:15;3.70;;;0.80;;
70829;SDS011;58451;51.550;7.208;2022-07-06T12:14:44;2.20;;;0.70;;
70829;SDS011;58451;51.550;7.208;2022-07-06T12:17:13;2.00;;;0.70;;
70829;SDS011;58451;51.550;7.208;2022-07-06T12:19:42;2.80;;;1.00;;
70829;SDS011;58451;51.550;7.208;2022-07-06T12:22:11;2.50;;;0.90;;
70829;SDS011;58451;51.550;7.208;2022-07-06T12:24:42;1.80;;;0.70;;
70829;SDS011;58451;51.550;7.208;2022-07-06T12:29:47;3.10;;;1.20;;
70829;SDS011;58451;51.550;7.208;2022-07-06T12:32:19;3.90;;;1.10;;
70829;SDS011;58451;51.550;7.208;2022-07-06T12:35:07;2.10;;;0.80;;
70829;SDS011;58451;51.550;7.208;2022-07-06T12:37:36;2.80;;;1.10;;
70829;SDS011;58451;51.550;7.208;2022-07-06T12:40:12;2.40;;;0.70;;
70829;SDS011;58451;51.550;7.208;2022-07-06T12:42:47;3.10;;;0.90;;
70829;SDS011;58451;51.550;7.208;2022-07-06T12:45:16;2.70;;;0.80;;
70829;SDS011;58451;51.550;7.208;2022-07-06T12:48:04;2.50;;;1.00;;
70829;SDS011;58451;51.550;7.208;2022-07-06T12:50:36;3.20;;;1.10;;
70829;SDS011;58451;51.550;7.208;2022-07-06T12:53:06;3.00;;;1.20;;
70829;SDS011;58451;51.550;7.208;2022-07-06T12:56:11;3.30;;;0.80;;
70829;SDS011;58451;51.550;7.208;2022-07-06T12:58:39;3.30;;;1.10;;
70829;SDS011;58451;51.550;7.208;2022-07-06T13:01:23;2.10;;;1.10;;
70829;SDS011;58451;51.550;7.208;2022-07-06T13:03:57;2.90;;;1.10;;
70829;SDS011;58451;51.550;7.208;2022-07-06T13:06:32;3.20;;;1.10;;
70829;SDS011;58451;51.550;7.208;2022-07-06T13:09:01;3.00;;;1.20;;
70829;SDS011;58451;51.550;7.208;2022-07-06T13:11:27;5.20;;;1.10;;
70829;SDS011;58451;51.550;7.208;2022-07-06T13:13:55;4.70;;;0.90;;
70829;SDS011;58451;51.550;7.208;2022-07-06T13:16:22;3.40;;;0.80;;
70829;SDS011;58451;51.550;7.208;2022-07-06T13:18:51;3.00;;;1.10;;
70829;SDS011;58451;51.550;7.208;2022-07-06T13:21:17;4.30;;;1.10;;
70829;SDS011;58451;51.550;7.208;2022-07-06T13:23:44;3.30;;;1.10;;
70829;SDS011;58451;51.550;7.208;2022-07-06T13:26:11;2.60;;;0.70;;
70829;SDS011;58451;51.550;7.208;2022-07-06T13:28:38;2.20;;;0.90;;
70829;SDS011;58451;51.550;7.208;2022-07-06T13:31:05;4.00;;;0.90;;
70829;SDS011;58451;51.550;7.208;2022-07-06T13:33:38;3.60;;;1.10;;
70829;SDS011;58451;51.550;7.208;2022-07-06T13:36:05;2.50;;;0.90;;
70829;SDS011;58451;51.550;7.208;2022-07-06T13:38:32;2.90;;;1.10;;
70829;SDS011;58451;51.550;7.208;2022-07-06T13:40:59;2.30;;;1.30;;
70829;SDS011;58451;51.550;7.208;2022-07-06T13:43:26;3.10;;;1.30;;
70829;SDS011;58451;51.550;7.208;2022-07-06T13:46:06;3.20;;;0.90;;
70829;SDS011;58451;51.550;7.208;2022-07-06T13:48:34;3.00;;;1.30;;
70829;SDS011;58451;51.550;7.208;2022-07-06T13:51:01;3.70;;;1.60;;
70829;SDS011;58451;51.550;7.208;2022-07-06T13:53:29;3.90;;;1.50;;
70829;SDS011;58451;51.550;7.208;2022-07-06T13:55:57;3.30;;;1.30;;
70829;SDS011;58451;51.550;7.208;2022-07-06T13:58:24;2.80;;;1.20;;
70829;SDS011;58451;51.550;7.208;2022-07-06T14:00:52;2.70;;;1.30;;
70829;SDS011;58451;51.550;7.208;2022-07-06T14:03:19;2.60;;;1.20;;
70829;SDS011;58451;51.550;7.208;2022-07-06T14:05:47;2.30;;;1.30;;
70829;SDS011;58451;51.550;7.208;2022-07-06T14:08:14;1.80;;;1.00;;
70829;SDS011;58451;51.550;7.208;2022-07-06T14:10:40;1.90;;;1.60;;
70829;SDS011;58451;51.550;7.208;2022-07-06T14:13:07;1.90;;;1.20;;
70829;SDS011;58451;51.550;7.208;2022-07-06T14:15:36;4.50;;;1.70;;
70829;SDS011;58451;51.550;7.208;2022-07-06T14:18:03;2.80;;;1.50;;
70829;SDS011;58451;51.550;7.208;2022-07-06T14:20:30;3.60;;;2.00;;
70829;SDS011;58451;51.550;7.208;2022-07-06T14:22:57;3.00;;;1.50;;
70829;SDS011;58451;51.550;7.208;2022-07-06T14:25:23;3.70;;;1.60;;
70829;SDS011;58451;51.550;7.208;2022-07-06T14:27:50;2.90;;;2.20;;
70829;SDS011;58451;51.550;7.208;2022-07-06T14:30:17;2.50;;;2.10;;
70829;SDS011;58451;51.550;7.208;2022-07-06T14:32:44;3.80;;;2.40;;
70829;SDS011;58451;51.550;7.208;2022-07-06T14:35:11;3.10;;;1.50;;
70829;SDS011;58451;51.550;7.208;2022-07-06T14:37:38;5.60;;;1.70;;
70829;SDS011;58451;51.550;7.208;2022-07-06T14:40:05;3.10;;;1.50;;
70829;SDS011;58451;51.550;7.208;2022-07-06T14:42:33;2.60;;;1.50;;
70829;SDS011;58451;51.550;7.208;2022-07-06T14:45:00;4.10;;;1.30;;
70829;SDS011;58451;51.550;7.208;2022-07-06T14:47:27;3.60;;;2.30;;
70829;SDS011;58451;51.550;7.208;2022-07-06T14:49:54;3.90;;;1.50;;
70829;SDS011;58451;51.550;7.208;2022-07-06T14:52:21;2.50;;;1.30;;
70829;SDS011;58451;51.550;7.208;2022-07-06T14:54:48;6.30;;;1.90;;
70829;SDS011;58451;51.550;7.208;2022-07-06T14:57:14;3.70;;;2.20;;
70829;SDS011;58451;51.550;7.208;2022-07-06T14:59:41;5.00;;;2.70;;
70829;SDS011;58451;51.550;7.208;2022-07-06T15:02:08;4.80;;;2.70;;
70829;SDS011;58451;51.550;7.208;2022-07-06T15:04:35;4.10;;;3.30;;
70829;SDS011;58451;51.550;7.208;2022-07-06T15:07:02;5.80;;;4.50;;